Time;durP1;ratioP1;P1;durP2;ratioP2;P2;SDS_P1;SDS_P2;PMS_P1;PMS_P2;Temp;Humidity;BMP_temperature;BMP_pressure;BME280_temperature;BME280_humidity;BME280_pressure;Samples;Min_cycle;Max_cycle;Signal;HPM_P1;HPM_P2
2023/06/10 00:03:52;;;;;;;8.57;4.88;;;;;;;20.69;40.48;99467.13;10380145;28;20803;-67
2023/06/10 00:08:54;;;;;;;8.30;5.15;;;;;;;20.53;41.19;99457.22;10374790;28;20217;-67
2023/06/10 00:13:56;;;;;;;5.68;5.18;;;;;;;21.10;40.46;99444.03;10386311;28;20220;-68
2023/06/10 00:19:03;;;;;;;8.55;5.28;;;;;;;20.31;41.63;99466.25;10394308;28;20226;-67
2023/06/10 00:24:06;;;;;;;6.25;5.20;;;;;;;20.67;40.85;99461.13;10392432;28;20240;-65
2023/06/10 00:29:08;;;;;;;5.60;4.90;;;;;;;20.72;41.65;99459.53;10392825;28;20735;-69
2023/06/10 00:34:10;;;;;;;6.18;5.22;;;;;;;20.90;40.90;99448.25;10383463;28;20249;-67
2023/06/10 00:39:11;;;;;;;5.95;5.10;;;;;;;20.77;41.08;99476.72;10392031;28;20205;-69
2023/06/10 00:44:13;;;;;;;6.95;5.07;;;;;;;20.02;42.18;99476.50;10395365;28;20463;-69
2023/06/10 00:49:16;;;;;;;10.98;5.80;;;;;;;20.63;41.35;99475.50;10390713;28;20291;-67
2023/06/10 00:54:19;;;;;;;7.15;5.60;;;;;;;20.89;41.27;99456.72;10388788;28;20220;-69
2023/06/10 00:59:21;;;;;;;6.28;5.68;;;;;;;21.07;40.59;99459.00;10394700;28;20216;-69
2023/06/10 01:04:23;;;;;;;5.93;5.20;;;;;;;19.89;42.11;99475.03;10385494;28;20627;-68
2023/06/10 01:09:36;;;;;;;6.85;5.50;;;;;;;21.02;41.28;99445.34;10389684;28;20311;-69
2023/06/10 01:14:38;;;;;;;6.57;5.68;;;;;;;20.71;41.33;99468.75;10386389;28;20311;-66
2023/06/10 01:19:40;;;;;;;7.47;5.50;;;;;;;21.29;40.78;99458.00;10390340;28;20252;-68
2023/06/10 01:24:43;;;;;;;6.93;5.10;;;;;;;20.23;42.33;99479.50;10390571;28;20232;-68
2023/06/10 01:30:29;;;;;;;5.82;5.28;;;;;;;20.42;42.27;99469.06;10388542;28;20223;-68
2023/06/10 01:35:31;;;;;;;8.93;5.65;;;;;;;20.43;42.28;99476.97;10389320;28;20311;-68
2023/06/10 01:40:34;;;;;;;6.30;5.70;;;;;;;19.63;43.07;99471.19;10385443;28;20248;-68
2023/06/10 01:45:36;;;;;;;7.57;5.60;;;;;;;18.81;44.41;99472.66;10396648;28;20225;-68
2023/06/10 01:50:37;;;;;;;6.70;6.07;;;;;;;19.54;43.56;99473.47;10383618;28;20295;-67
2023/06/10 01:55:39;;;;;;;8.20;6.03;;;;;;;19.20;43.92;99486.34;10389560;28;20335;-68
2023/06/10 02:00:41;;;;;;;6.43;5.82;;;;;;;18.68;44.73;99475.75;10386223;28;20266;-68
2023/06/10 02:05:43;;;;;;;6.47;5.88;;;;;;;19.44;43.80;99486.91;10388241;28;20245;-68
2023/06/10 02:10:45;;;;;;;8.05;6.22;;;;;;;18.30;45.55;99483.47;10385257;28;20347;-67
2023/06/10 02:15:47;;;;;;;8.40;6.35;;;;;;;17.66;46.45;99460.06;10390470;28;20220;-67
2023/06/10 02:20:49;;;;;;;8.25;5.82;;;;;;;18.18;46.09;99493.53;10387641;28;20270;-67
2023/06/10 02:25:50;;;;;;;8.05;6.65;;;;;;;17.95;46.64;99489.84;10387702;28;20692;-66
2023/06/10 02:30:52;;;;;;;8.93;6.20;;;;;;;18.98;45.03;99484.38;10385215;28;20212;-68
2023/06/10 02:35:55;;;;;;;7.47;6.20;;;;;;;18.77;45.48;99506.78;10388424;28;20248;-68
2023/06/10 02:40:57;;;;;;;7.30;6.50;;;;;;;18.53;45.74;99522.34;10387682;28;20257;-66
2023/06/10 02:45:58;;;;;;;6.90;6.20;;;;;;;18.11;46.34;99518.03;10387967;28;20228;-67
2023/06/10 02:51:01;;;;;;;7.67;6.93;;;;;;;18.25;45.85;99516.69;10386377;28;20208;-66
2023/06/10 02:56:03;;;;;;;8.85;6.45;;;;;;;18.16;45.82;99530.84;10386476;28;20219;-68
2023/06/10 03:01:04;;;;;;;6.60;5.90;;;;;;;18.37;45.56;99530.22;10387034;28;20701;-67
2023/06/10 03:06:06;;;;;;;7.33;6.10;;;;;;;18.31;45.88;99547.41;10379196;28;20323;-67
2023/06/10 03:11:08;;;;;;;7.20;6.27;;;;;;;18.35;45.30;99551.28;10385576;28;20196;-67
2023/06/10 03:16:12;;;;;;;7.23;5.90;;;;;;;17.85;46.27;99560.00;10379878;28;20604;-68
2023/06/10 03:21:14;;;;;;;8.07;7.27;;;;;;;18.47;45.33;99551.22;10383053;28;20201;-68
2023/06/10 03:26:16;;;;;;;7.00;6.30;;;;;;;18.28;45.55;99566.81;10384113;28;20241;-66
2023/06/10 03:31:18;;;;;;;10.60;5.80;;;;;;;18.86;44.72;99561.41;10384939;28;20300;-67
2023/06/10 03:36:19;;;;;;;6.80;5.80;;;;;;;18.21;45.45;99580.50;10384620;28;20217;-68
2023/06/10 03:41:21;;;;;;;6.50;5.90;;;;;;;18.20;45.46;99581.59;10390976;28;20293;-67
2023/06/10 03:46:23;;;;;;;7.87;6.17;;;;;;;19.10;44.61;99560.22;10390975;28;20239;-66
2023/06/10 03:51:25;;;;;;;11.67;6.57;;;;;;;18.91;44.45;99564.19;10392474;28;20304;-70
2023/06/10 03:56:28;;;;;;;7.83;6.20;;;;;;;19.02;44.30;99579.59;10396963;28;20286;-70
2023/06/10 04:01:31;;;;;;;6.30;5.70;;;;;;;19.11;44.74;99572.69;10394748;28;20212;-70
2023/06/10 04:06:33;;;;;;;6.83;6.03;;;;;;;19.38;43.85;99578.28;10389545;28;20237;-70
2023/06/10 04:11:35;;;;;;;7.53;6.33;;;;;;;19.08;44.09;99603.03;10394281;28;20267;-69
2023/06/10 04:16:38;;;;;;;6.47;5.67;;;;;;;19.79;43.22;99579.94;10389763;28;20920;-70
2023/06/10 04:21:40;;;;;;;6.45;5.63;;;;;;;18.42;45.39;99619.69;10387509;28;20219;-70
2023/06/10 04:26:41;;;;;;;7.22;5.75;;;;;;;18.74;44.67;99615.66;10388190;28;20319;-70
2023/06/10 04:31:43;;;;;;;9.43;6.07;;;;;;;19.49;43.97;99600.13;10391536;28;20216;-69
2023/06/10 04:36:45;;;;;;;7.68;6.18;;;;;;;18.08;45.98;99616.81;10389966;28;20322;-70
2023/06/10 04:41:47;;;;;;;6.13;5.53;;;;;;;18.74;45.23;99621.09;10386582;28;20312;-70
2023/06/10 04:46:48;;;;;;;8.52;6.03;;;;;;;18.93;45.04;99603.59;10396113;28;20236;-71
2023/06/10 04:51:51;;;;;;;7.93;5.77;;;;;;;18.05;46.58;99624.56;10388493;28;20208;-69
2023/06/10 04:56:54;;;;;;;7.23;6.00;;;;;;;19.82;44.26;99582.97;10393437;28;20243;-71
2023/06/10 05:01:56;;;;;;;6.97;6.10;;;;;;;19.57;44.13;99586.19;10391047;28;20209;-71
2023/06/10 05:06:58;;;;;;;7.00;6.32;;;;;;;18.45;46.04;99626.50;10387441;28;20747;-69
2023/06/10 05:12:00;;;;;;;7.13;6.43;;;;;;;20.19;43.77;99585.09;10389483;28;20625;-71
2023/06/10 05:17:02;;;;;;;7.43;6.43;;;;;;;19.19;45.03;99609.44;10392211;28;20754;-70
2023/06/10 05:22:04;;;;;;;9.43;6.45;;;;;;;18.49;45.96;99634.97;10386847;28;20716;-70
2023/06/10 05:27:06;;;;;;;12.88;6.10;;;;;;;19.39;44.78;99592.66;10388139;28;20240;-71
2023/06/10 05:32:08;;;;;;;6.40;5.65;;;;;;;18.96;45.44;99613.94;10388421;28;20209;-70
2023/06/10 05:37:10;;;;;;;7.18;6.47;;;;;;;18.93;46.17;99629.84;10384454;28;20216;-70
2023/06/10 05:42:13;;;;;;;7.00;6.30;;;;;;;19.73;44.94;99590.72;10389925;28;20219;-70
2023/06/10 05:47:14;;;;;;;6.75;5.97;;;;;;;19.99;44.52;99603.84;10391763;28;20241;-70
2023/06/10 05:52:16;;;;;;;7.57;6.45;;;;;;;19.39;45.13;99627.94;10386614;28;20326;-71
2023/06/10 05:57:18;;;;;;;6.50;5.80;;;;;;;20.48;43.76;99569.41;10392435;28;20330;-70
2023/06/10 06:02:20;;;;;;;6.53;5.68;;;;;;;20.80;43.37;99582.25;10384950;28;20751;-70
2023/06/10 06:07:22;;;;;;;5.50;4.90;;;;;;;21.71;41.96;99555.16;10380598;28;20244;-70
2023/06/10 06:12:23;;;;;;;6.93;4.85;;;;;;;21.77;41.70;99563.09;10384227;28;20514;-72
2023/06/10 06:17:25;;;;;;;5.45;4.95;;;;;;;22.84;41.08;99533.69;10388552;28;20221;-69
2023/06/10 06:22:27;;;;;;;5.90;4.82;;;;;;;22.07;42.03;99556.16;10383462;28;20225;-71
2023/06/10 06:27:28;;;;;;;5.55;4.70;;;;;;;22.65;40.79;99545.16;10386079;28;20857;-71
2023/06/10 06:32:30;;;;;;;4.90;4.40;;;;;;;21.14;41.71;99638.28;10378873;28;20237;-70
2023/06/10 06:37:32;;;;;;;5.35;4.85;;;;;;;21.10;43.05;99623.56;10389117;28;20587;-72
2023/06/10 06:42:34;;;;;;;5.30;4.75;;;;;;;20.92;42.83;99641.94;10390136;28;20220;-70
2023/06/10 06:47:35;;;;;;;5.72;5.13;;;;;;;21.96;42.22;99554.50;10389112;28;20225;-70
2023/06/10 06:52:37;;;;;;;5.05;4.55;;;;;;;20.25;43.78;99641.16;10383228;28;20650;-70
2023/06/10 06:57:39;;;;;;;5.10;4.60;;;;;;;21.55;42.51;99598.63;10387570;28;20298;-70
2023/06/10 07:02:41;;;;;;;5.30;4.72;;;;;;;22.22;41.48;99547.22;10387491;28;20771;-71
2023/06/10 07:07:43;;;;;;;4.63;4.15;;;;;;;22.75;41.00;99506.16;10383144;28;20732;-70
2023/06/10 07:12:44;;;;;;;6.78;4.40;;;;;;;22.84;41.12;99530.97;10388282;28;20376;-72
2023/06/10 07:17:46;;;;;;;5.20;4.55;;;;;;;22.96;40.87;99511.59;10385326;28;20228;-71
2023/06/10 07:22:48;;;;;;;9.25;5.20;;;;;;;23.70;40.69;99507.41;10396071;28;20215;-70
2023/06/10 07:27:50;;;;;;;7.53;4.85;;;;;;;23.26;40.53;99535.31;10394541;28;20306;-71
2023/06/10 07:32:51;;;;;;;5.50;4.25;;;;;;;23.40;41.27;99528.22;10387431;28;20212;-70
2023/06/10 07:37:53;;;;;;;6.47;4.72;;;;;;;22.07;42.14;99574.44;10390666;28;20316;-69
2023/06/10 07:42:55;;;;;;;5.30;4.75;;;;;;;24.57;40.17;99472.47;10396856;28;20247;-70
2023/06/10 07:47:57;;;;;;;5.80;4.75;;;;;;;23.93;40.73;99494.97;10391983;28;20247;-70
2023/06/10 07:52:58;;;;;;;5.93;4.90;;;;;;;22.83;40.88;99568.34;10390520;28;20200;-70
2023/06/10 07:58:00;;;;;;;4.88;4.38;;;;;;;23.13;40.65;99536.72;10396520;28;20325;-69
2023/06/10 08:03:02;;;;;;;5.60;4.75;;;;;;;24.27;40.45;99477.88;10390367;28;20295;-69
2023/06/10 08:08:04;;;;;;;5.20;4.30;;;;;;;23.81;40.42;99503.50;10385834;28;20239;-69
2023/06/10 08:13:08;;;;;;;5.78;5.07;;;;;;;24.42;40.15;99492.53;10392971;28;20759;-68
2023/06/10 08:18:10;;;;;;;5.47;4.55;;;;;;;24.86;39.42;99483.44;10387722;28;20274;-69
2023/06/10 08:23:11;;;;;;;4.35;3.95;;;;;;;24.57;39.37;99505.28;10387274;28;20219;-69
2023/06/10 08:28:13;;;;;;;4.57;4.00;;;;;;;24.32;39.63;99486.03;10383299;28;20236;-68
2023/06/10 08:33:15;;;;;;;4.72;4.07;;;;;;;24.31;39.73;99513.66;10387092;28;20822;-68
2023/06/10 08:38:17;;;;;;;4.15;3.70;;;;;;;25.56;38.58;99432.88;10389792;28;20259;-69
2023/06/10 08:43:39;;;;;;;3.58;3.28;;;;;;;25.41;37.92;99462.09;10396151;28;20770;-70
2023/06/10 08:48:44;;;;;;;3.67;3.22;;;;;;;24.69;38.93;99501.09;10383220;28;20237;-69
2023/06/10 08:54:13;;;;;;;6.18;3.83;;;;;;;25.35;38.85;99459.69;10386918;28;20290;-68
2023/06/10 08:59:18;;;;;;;4.68;4.20;;;;;;;25.53;37.18;99445.25;10394114;28;20532;-69
2023/06/10 09:04:20;;;;;;;9.48;4.13;;;;;;;25.22;38.02;99453.00;10385746;28;20240;-68
2023/06/10 09:09:23;;;;;;;5.22;3.97;;;;;;;24.07;38.41;99510.75;10378046;28;20257;-68
2023/06/10 09:14:25;;;;;;;4.72;3.53;;;;;;;25.18;38.15;99444.53;10388148;28;20609;-69
2023/06/10 09:19:28;;;;;;;4.40;3.55;;;;;;;25.71;37.40;99448.28;10381473;28;20288;-71
2023/06/10 09:24:30;;;;;;;3.97;3.67;;;;;;;26.82;36.68;99393.94;10385511;28;20221;-68
2023/06/10 09:29:46;;;;;;;4.28;3.88;;;;;;;26.16;37.48;99419.41;10382024;28;20235;-68
2023/06/10 09:34:49;;;;;;;4.18;3.78;;;;;;;26.79;36.73;99389.06;10377317;28;20267;-71
2023/06/10 09:40:08;;;;;;;4.25;3.85;;;;;;;25.17;37.98;99461.22;10379954;28;20244;-70
2023/06/10 09:45:11;;;;;;;4.20;3.80;;;;;;;26.47;36.91;99404.41;10391838;28;20324;-70
2023/06/10 09:50:13;;;;;;;4.25;3.85;;;;;;;26.86;36.21;99381.25;10380932;28;20239;-67
2023/06/10 09:55:15;;;;;;;4.65;3.85;;;;;;;25.91;37.38;99450.78;10391683;28;20368;-67
2023/06/10 10:00:17;;;;;;;4.15;3.60;;;;;;;27.55;35.37;99378.47;10392700;28;20213;-67
2023/06/10 10:05:23;;;;;;;4.22;3.83;;;;;;;26.38;36.27;99442.69;10383886;28;20357;-68
2023/06/10 10:10:25;;;;;;;6.20;4.05;;;;;;;26.25;36.86;99422.34;10386867;28;20216;-67
2023/06/10 10:15:31;;;;;;;4.35;3.95;;;;;;;26.60;36.33;99391.84;10385709;28;20652;-67
2023/06/10 10:20:37;;;;;;;4.05;3.50;;;;;;;25.78;36.93;99455.06;10380639;28;20291;-67
2023/06/10 10:25:41;;;;;;;5.22;4.10;;;;;;;27.90;35.85;99353.25;10378855;28;20645;-67
2023/06/10 10:30:48;;;;;;;4.20;3.72;;;;;;;27.80;35.10;99355.13;10380522;28;20292;-68
2023/06/10 10:35:51;;;;;;;4.40;4.00;;;;;;;27.15;35.56;99408.41;10383609;28;20228;-66
2023/06/10 10:40:59;;;;;;;6.53;3.83;;;;;;;27.66;35.59;99387.28;10379261;28;20258;-66
2023/06/10 10:46:03;;;;;;;5.05;3.83;;;;;;;28.27;34.63;99362.25;10388959;28;20707;-67
2023/06/10 10:51:05;;;;;;;4.00;3.67;;;;;;;27.83;35.34;99373.75;10381810;28;20208;-65
2023/06/10 10:56:12;;;;;;;4.40;4.00;;;;;;;26.90;36.16;99420.69;10382372;28;20392;-68
2023/06/10 11:06:22;;;;;;;5.55;4.63;;;;;;;26.97;37.14;99387.34;10410871;28;21474;-67
2023/06/10 11:11:27;;;;;;;5.82;4.03;;;;;;;26.71;36.42;99385.06;10420041;28;20265;-67
2023/06/10 11:16:30;;;;;;;5.13;3.65;;;;;;;27.85;36.20;99343.16;10418204;28;20315;-68
2023/06/10 11:21:32;;;;;;;4.32;3.88;;;;;;;26.41;36.32;99431.13;10418499;28;20267;-67
2023/06/10 11:26:36;;;;;;;4.10;3.70;;;;;;;26.74;35.00;99431.97;10414320;28;20737;-67
2023/06/10 11:31:41;;;;;;;4.45;3.80;;;;;;;27.88;34.17;99348.06;10409136;28;20223;-68
2023/06/10 11:36:45;;;;;;;3.90;3.50;;;;;;;28.15;34.41;99332.53;10415092;28;20247;-67
2023/06/10 11:41:48;;;;;;;3.90;3.60;;;;;;;27.83;34.43;99372.91;10414767;28;20699;-68
2023/06/10 11:46:51;;;;;;;3.65;3.33;;;;;;;27.61;34.28;99401.94;10421497;28;20335;-67
2023/06/10 11:51:53;;;;;;;5.65;3.80;;;;;;;26.77;34.53;99444.25;10422612;28;20219;-69
2023/06/10 11:56:59;;;;;;;3.42;3.13;;;;;;;27.57;34.54;99406.44;10416526;28;20224;-67
2023/06/10 12:02:01;;;;;;;4.30;3.67;;;;;;;27.54;34.39;99401.56;10411278;28;20290;-67
2023/06/10 12:07:02;;;;;;;4.25;3.85;;;;;;;28.42;33.80;99368.19;10412354;28;20270;-67
2023/06/10 12:12:08;;;;;;;6.13;3.83;;;;;;;27.84;34.02;99382.78;10412719;28;20207;-67
2023/06/10 12:17:10;;;;;;;6.20;3.83;;;;;;;28.18;34.15;99376.75;10392138;28;20299;-68
2023/06/10 12:22:13;;;;;;;5.18;3.65;;;;;;;28.08;34.04;99370.69;10387545;28;20276;-68
2023/06/10 12:27:15;;;;;;;9.02;3.85;;;;;;;28.08;34.16;99368.75;10379302;28;20236;-67
2023/06/10 12:32:16;;;;;;;4.45;3.63;;;;;;;28.13;33.70;99373.31;10384547;28;20270;-68
2023/06/10 12:37:18;;;;;;;4.03;3.30;;;;;;;28.31;33.23;99361.31;10390398;28;20224;-68
2023/06/10 12:42:23;;;;;;;4.18;3.33;;;;;;;28.05;33.46;99386.69;10390856;28;20225;-68
2023/06/10 12:47:36;;;;;;;6.93;3.60;;;;;;;28.94;32.56;99336.53;10398685;28;20263;-68
2023/06/10 12:52:38;;;;;;;4.07;3.35;;;;;;;28.29;33.38;99373.75;10384648;28;20208;-67
2023/06/10 12:57:48;;;;;;;6.35;3.30;;;;;;;27.69;32.29;99403.97;10391639;28;20249;-68
2023/06/10 13:02:50;;;;;;;3.95;3.55;;;;;;;28.14;33.01;99374.91;10385563;28;20573;-67
2023/06/10 13:07:52;;;;;;;3.53;3.17;;;;;;;28.97;32.16;99353.22;10382310;28;20608;-67
2023/06/10 13:12:54;;;;;;;3.80;3.05;;;;;;;28.90;32.67;99349.31;10379016;28;20717;-67
2023/06/10 13:17:56;;;;;;;3.67;3.38;;;;;;;28.88;32.38;99351.56;10385271;28;20221;-67
2023/06/10 13:22:58;;;;;;;3.40;3.10;;;;;;;28.99;32.02;99352.09;10385425;28;20616;-67
2023/06/10 13:27:59;;;;;;;3.70;3.20;;;;;;;28.83;32.48;99357.22;10382590;28;20261;-67
2023/06/10 13:33:01;;;;;;;6.63;4.03;;;;;;;29.24;32.58;99340.34;10381238;28;20212;-68
2023/06/10 13:38:03;;;;;;;3.53;3.20;;;;;;;29.51;30.34;99325.44;10386241;28;20256;-68
2023/06/10 13:43:05;;;;;;;5.05;3.28;;;;;;;29.13;31.50;99333.50;10392140;28;20265;-68
2023/06/10 13:48:07;;;;;;;3.35;2.75;;;;;;;28.82;31.52;99363.84;10386779;28;20278;-68
2023/06/10 13:53:08;;;;;;;5.65;3.72;;;;;;;28.15;31.71;99379.28;10378205;28;20232;-68
2023/06/10 13:58:10;;;;;;;3.17;2.80;;;;;;;29.73;31.21;99287.88;10376801;28;20343;-67
2023/06/10 14:03:12;;;;;;;3.30;3.00;;;;;;;29.05;30.98;99332.34;10378173;28;20232;-67
2023/06/10 14:08:14;;;;;;;3.47;3.08;;;;;;;28.81;30.82;99349.25;10383026;28;20220;-67
2023/06/10 14:13:16;;;;;;;3.33;3.03;;;;;;;29.37;31.02;99316.53;10375981;28;20201;-67
2023/06/10 14:18:17;;;;;;;3.55;2.85;;;;;;;29.36;31.03;99320.44;10375584;28;20339;-67
2023/06/10 14:23:19;;;;;;;3.50;3.00;;;;;;;29.13;31.18;99342.59;10377885;28;20268;-66
2023/06/10 14:28:21;;;;;;;3.22;2.92;;;;;;;29.37;31.44;99333.06;10377821;28;20459;-67
2023/06/10 14:33:23;;;;;;;4.30;3.25;;;;;;;29.29;30.93;99333.88;10378295;28;20201;-66
2023/06/10 14:38:25;;;;;;;6.55;3.60;;;;;;;29.24;31.44;99332.09;10382325;28;20225;-67
2023/06/10 14:43:26;;;;;;;3.60;3.20;;;;;;;29.68;31.13;99318.34;10387312;28;20692;-67
2023/06/10 14:48:28;;;;;;;4.88;3.30;;;;;;;29.80;30.49;99298.41;10377844;28;20630;-69
2023/06/10 14:53:30;;;;;;;4.05;3.35;;;;;;;29.09;31.03;99340.78;10375089;28;20899;-66
2023/06/10 14:58:31;;;;;;;3.80;3.28;;;;;;;29.94;30.75;99296.25;10374572;28;20715;-66
2023/06/10 15:03:33;;;;;;;3.55;3.20;;;;;;;29.04;31.26;99363.75;10378310;28;20327;-68
2023/06/10 15:08:35;;;;;;;5.65;3.38;;;;;;;29.30;30.72;99335.47;10377885;28;20290;-66
2023/06/10 15:13:37;;;;;;;3.65;3.33;;;;;;;28.82;31.32;99350.91;10382724;28;20764;-67
2023/06/10 15:18:38;;;;;;;3.88;3.50;;;;;;;29.88;30.94;99295.63;10382794;28;20262;-66
2023/06/10 15:23:40;;;;;;;3.75;3.45;;;;;;;28.98;31.27;99326.47;10388496;28;20237;-67
2023/06/10 15:28:42;;;;;;;3.58;3.25;;;;;;;29.22;31.37;99303.22;10381693;28;20584;-70
2023/06/10 15:33:44;;;;;;;4.63;3.47;;;;;;;30.12;31.35;99263.94;10378331;28;20827;-68
2023/06/10 15:38:48;;;;;;;8.65;3.10;;;;;;;30.04;30.42;99279.41;10388432;28;20209;-67
2023/06/10 15:43:49;;;;;;;3.55;3.13;;;;;;;29.58;30.08;99291.91;10385915;28;20256;-67
2023/06/10 15:48:53;;;;;;;3.55;3.25;;;;;;;28.41;31.63;99336.28;10386307;28;20236;-70
2023/06/10 15:53:55;;;;;;;3.85;2.95;;;;;;;29.20;31.30;99295.31;10384328;28;20232;-72
2023/06/10 15:58:56;;;;;;;6.50;3.65;;;;;;;29.23;31.21;99305.66;10384682;28;20436;-72
2023/06/10 16:03:58;;;;;;;2.83;2.60;;;;;;;29.50;31.18;99281.69;10392204;28;20294;-71
2023/06/10 16:09:00;;;;;;;2.97;2.75;;;;;;;29.20;30.11;99294.47;10390081;28;21052;-72
2023/06/10 16:14:02;;;;;;;3.70;2.70;;;;;;;28.33;31.14;99328.78;10392691;28;20221;-71
2023/06/10 16:19:04;;;;;;;3.20;3.00;;;;;;;28.35;31.21;99312.78;10395329;28;20204;-69
2023/06/10 16:24:07;;;;;;;8.70;3.30;;;;;;;29.62;30.21;99281.06;10390833;28;20235;-69
2023/06/10 16:29:09;;;;;;;3.08;2.78;;;;;;;29.59;30.98;99292.72;10378715;28;20231;-70
2023/06/10 16:34:11;;;;;;;3.22;2.92;;;;;;;29.58;30.32;99293.84;10382890;28;20455;-69
2023/06/10 16:39:13;;;;;;;4.20;2.90;;;;;;;29.83;30.14;99303.25;10389798;28;20240;-69
2023/06/10 16:44:16;;;;;;;4.57;3.03;;;;;;;29.18;30.67;99319.59;10398834;28;20291;-70
2023/06/10 16:49:18;;;;;;;3.33;2.90;;;;;;;29.17;30.61;99317.97;10386886;28;20339;-70
2023/06/10 16:54:20;;;;;;;5.30;2.97;;;;;;;29.59;31.00;99314.78;10375059;28;20278;-68
2023/06/10 16:59:22;;;;;;;4.38;3.00;;;;;;;29.52;30.40;99306.97;10390127;28;20512;-69
2023/06/10 17:04:23;;;;;;;5.07;3.15;;;;;;;29.97;29.29;99298.34;10384082;28;20656;-69
2023/06/10 17:09:26;;;;;;;5.03;3.05;;;;;;;29.43;30.18;99320.75;10381866;28;20688;-70
2023/06/10 17:14:28;;;;;;;3.78;3.00;;;;;;;28.86;30.74;99340.06;10378773;28;20661;-70
2023/06/10 17:19:30;;;;;;;5.97;3.08;;;;;;;29.28;30.27;99338.56;10382861;28;20217;-70
2023/06/10 17:24:32;;;;;;;3.35;3.05;;;;;;;29.59;30.26;99325.81;10381765;28;20232;-69
2023/06/10 17:29:33;;;;;;;3.05;2.75;;;;;;;29.45;30.39;99336.97;10384635;28;20604;-70
2023/06/10 17:34:35;;;;;;;2.80;2.60;;;;;;;28.96;30.84;99354.34;10381416;28;20766;-70
2023/06/10 17:39:37;;;;;;;3.55;2.92;;;;;;;29.98;30.16;99315.72;10385259;28;20802;-69
2023/06/10 17:44:38;;;;;;;4.43;3.05;;;;;;;29.77;30.68;99330.16;10383764;28;20291;-70
2023/06/10 17:49:40;;;;;;;4.30;3.22;;;;;;;29.98;30.86;99329.53;10379442;28;20733;-71
2023/06/10 17:54:42;;;;;;;3.70;3.08;;;;;;;29.29;30.78;99353.97;10374837;28;20225;-69
2023/06/10 17:59:44;;;;;;;4.55;2.92;;;;;;;29.38;31.42;99348.47;10387310;28;20319;-71
2023/06/10 18:04:46;;;;;;;4.25;3.08;;;;;;;28.74;31.66;99369.00;10370591;28;20244;-69
2023/06/10 18:09:48;;;;;;;6.18;2.80;;;;;;;29.13;31.32;99356.38;10385371;28;20212;-71
2023/06/10 18:14:50;;;;;;;4.25;3.25;;;;;;;27.83;32.13;99381.16;10375258;28;20720;-69
2023/06/10 18:19:51;;;;;;;5.40;3.17;;;;;;;29.06;31.35;99361.50;10370090;28;20217;-70
2023/06/10 18:24:53;;;;;;;4.90;3.42;;;;;;;28.87;31.38;99374.72;10377017;28;20329;-71
2023/06/10 18:29:55;;;;;;;4.85;3.08;;;;;;;28.87;31.33;99374.72;10379877;28;20219;-69
2023/06/10 18:34:56;;;;;;;5.55;3.22;;;;;;;28.58;32.16;99379.59;10373815;28;20300;-73
2023/06/10 18:39:58;;;;;;;3.45;3.00;;;;;;;29.20;31.66;99366.09;10384277;28;20259;-71
2023/06/10 18:45:00;;;;;;;4.57;3.38;;;;;;;28.35;32.12;99383.50;10387744;28;20242;-70
2023/06/10 18:50:01;;;;;;;4.18;3.45;;;;;;;28.35;32.19;99402.75;10377995;28;20219;-70
2023/06/10 18:55:04;;;;;;;3.45;2.80;;;;;;;28.28;32.02;99408.69;10382884;28;20231;-70
2023/06/10 19:00:06;;;;;;;3.47;2.88;;;;;;;28.90;32.22;99398.88;10387692;28;20294;-69
2023/06/10 19:05:09;;;;;;;3.55;2.97;;;;;;;28.76;31.96;99418.22;10381690;28;20228;-69
2023/06/10 19:10:11;;;;;;;3.72;3.05;;;;;;;28.79;32.26;99406.59;10377566;28;20731;-70
2023/06/10 19:15:14;;;;;;;6.63;3.10;;;;;;;28.68;32.42;99417.06;10382945;28;20310;-70
2023/06/10 19:20:16;;;;;;;3.75;3.10;;;;;;;28.66;32.44;99419.34;10384469;28;20255;-70
2023/06/10 19:25:19;;;;;;;5.15;3.22;;;;;;;28.08;33.19;99431.19;10382486;28;20241;-69
2023/06/10 19:30:20;;;;;;;8.98;3.45;;;;;;;28.48;32.88;99423.09;10389563;28;20301;-69
2023/06/10 19:35:22;;;;;;;3.17;2.80;;;;;;;28.40;32.71;99441.16;10393341;28;20240;-70
2023/06/10 19:40:24;;;;;;;3.90;3.10;;;;;;;27.81;33.21;99463.13;10381600;28;20609;-69
2023/06/10 19:45:26;;;;;;;4.78;3.20;;;;;;;27.37;33.94;99468.13;10402326;28;20232;-69
2023/06/10 19:50:27;;;;;;;3.47;3.17;;;;;;;26.87;34.59;99471.53;10390316;28;20743;-69
2023/06/10 19:55:29;;;;;;;4.25;2.75;;;;;;;27.73;33.64;99466.59;10391161;28;20227;-69
2023/06/10 20:00:31;;;;;;;3.28;3.00;;;;;;;27.93;33.56;99457.88;10393332;28;20240;-69
2023/06/10 20:05:33;;;;;;;3.30;3.00;;;;;;;25.72;36.08;99494.59;10382714;28;20630;-68
2023/06/10 20:10:34;;;;;;;4.03;3.03;;;;;;;25.81;35.96;99495.59;10384607;28;20302;-68
2023/06/10 20:15:36;;;;;;;3.05;2.75;;;;;;;26.53;35.70;99472.59;10391165;28;20229;-69
2023/06/10 20:20:38;;;;;;;4.95;2.72;;;;;;;26.07;36.25;99492.50;10388980;28;20680;-68
2023/06/10 20:25:39;;;;;;;3.65;3.28;;;;;;;26.60;36.06;99491.44;10387086;28;20248;-71
2023/06/10 20:30:41;;;;;;;3.92;3.00;;;;;;;26.27;36.45;99507.06;10387657;28;20217;-69
2023/06/10 20:35:43;;;;;;;4.30;2.83;;;;;;;26.63;36.04;99490.84;10375263;28;20256;-72
2023/06/10 20:40:44;;;;;;;3.65;3.05;;;;;;;26.62;36.29;99513.91;10384201;28;20239;-70
2023/06/10 20:45:46;;;;;;;4.43;3.38;;;;;;;25.36;38.01;99527.88;10393607;28;20236;-68
2023/06/10 20:50:48;;;;;;;4.97;3.10;;;;;;;26.28;36.99;99505.94;10385441;28;20205;-70
2023/06/10 20:55:50;;;;;;;4.22;3.20;;;;;;;25.81;37.59;99522.16;10388890;28;20271;-69
2023/06/10 21:00:52;;;;;;;3.83;3.30;;;;;;;26.03;37.72;99510.66;10387755;28;20676;-71
2023/06/10 21:05:54;;;;;;;7.25;3.63;;;;;;;24.75;39.02;99556.59;10386349;28;20251;-72
2023/06/10 21:10:56;;;;;;;4.57;2.97;;;;;;;26.07;37.90;99519.09;10383644;28;20339;-70
2023/06/10 21:15:57;;;;;;;3.55;3.25;;;;;;;24.80;38.78;99572.97;10375980;28;20275;-71
2023/06/10 21:20:59;;;;;;;4.75;3.40;;;;;;;24.29;39.80;99581.47;10385765;28;20773;-72
2023/06/10 21:26:04;;;;;;;5.43;3.22;;;;;;;25.41;38.92;99557.94;10372355;28;20234;-71
2023/06/10 21:31:06;;;;;;;3.60;3.30;;;;;;;24.73;39.67;99576.03;10375965;28;20213;-71
2023/06/10 21:36:08;;;;;;;3.50;3.20;;;;;;;25.41;38.96;99554.38;10381429;28;20249;-70
2023/06/10 21:41:10;;;;;;;4.15;3.58;;;;;;;24.24;40.82;99576.03;10387518;28;20200;-72
2023/06/10 21:46:12;;;;;;;4.55;3.70;;;;;;;24.84;39.44;99576.75;10389546;28;20747;-72
2023/06/10 21:51:14;;;;;;;3.90;3.40;;;;;;;24.40;40.38;99584.97;10387770;28;20770;-67
2023/06/10 21:56:18;;;;;;;3.60;3.30;;;;;;;25.40;38.97;99560.97;10388105;28;20249;-68
2023/06/10 22:01:20;;;;;;;5.30;4.03;;;;;;;25.47;38.57;99581.44;10385373;28;20205;-67
2023/06/10 22:06:22;;;;;;;4.07;3.67;;;;;;;25.06;39.08;99592.72;10384653;28;20511;-66
2023/06/10 22:11:24;;;;;;;3.92;3.63;;;;;;;23.68;41.02;99604.34;10386001;28;20289;-67
2023/06/10 22:16:26;;;;;;;4.53;4.03;;;;;;;24.89;39.21;99589.59;10382905;28;20220;-67
2023/06/10 22:21:28;;;;;;;5.53;3.92;;;;;;;24.65;39.59;99598.50;10384167;28;20299;-67
2023/06/10 22:26:30;;;;;;;4.00;3.60;;;;;;;23.47;41.60;99601.66;10381479;28;20610;-66
2023/06/10 22:31:53;;;;;;;4.47;3.88;;;;;;;24.27;40.13;99583.66;10381608;28;20215;-68
2023/06/10 22:36:54;;;;;;;4.57;3.35;;;;;;;23.85;40.57;99583.00;10384816;28;20221;-66
2023/06/10 22:41:56;;;;;;;4.57;3.90;;;;;;;23.93;39.40;99612.47;10390317;28;20219;-67
2023/06/10 22:46:58;;;;;;;4.00;3.63;;;;;;;25.20;38.41;99576.50;10393681;28;20228;-66
2023/06/10 22:51:59;;;;;;;4.05;3.58;;;;;;;24.45;39.18;99615.03;10382647;28;20233;-65
2023/06/10 22:57:01;;;;;;;5.40;3.60;;;;;;;23.34;40.11;99643.16;10378373;28;20225;-68
2023/06/10 23:02:03;;;;;;;3.92;3.53;;;;;;;24.35;39.78;99607.69;10379266;28;20674;-65
2023/06/10 23:07:05;;;;;;;4.03;3.63;;;;;;;23.93;39.40;99644.44;10386607;28;20229;-67
2023/06/10 23:12:07;;;;;;;4.68;3.67;;;;;;;24.95;38.82;99610.34;10383863;28;20208;-67
2023/06/10 23:17:09;;;;;;;4.32;3.92;;;;;;;24.23;39.25;99640.81;10380894;28;20271;-68
2023/06/10 23:22:12;;;;;;;4.53;3.80;;;;;;;22.78;40.98;99674.72;10381624;28;20245;-65
2023/06/10 23:27:19;;;;;;;4.13;3.70;;;;;;;23.45;41.01;99644.78;10375069;28;20234;-66
2023/06/10 23:32:22;;;;;;;4.05;3.70;;;;;;;23.29;41.03;99634.97;10381449;28;20204;-69